createdAt,value
2023-02-08T00:00:44.159Z,-2.87
2023-02-08T00:03:11.178Z,-2.95
2023-02-08T00:05:38.070Z,-2.95
2023-02-08T00:08:05.025Z,-2.95
2023-02-08T00:10:31.765Z,-2.96
2023-02-08T00:12:58.426Z,-2.98
2023-02-08T00:15:24.872Z,-2.97
2023-02-08T00:17:51.441Z,-2.99
2023-02-08T00:20:18.159Z,-3.08
2023-02-08T00:22:44.745Z,-3.17
2023-02-08T00:25:11.570Z,-3.21
2023-02-08T00:27:38.780Z,-3.19
2023-02-08T00:30:06.052Z,-3.15
2023-02-08T00:32:32.573Z,-3.14
2023-02-08T00:34:59.149Z,-3.21
2023-02-08T00:37:25.613Z,-3.23
2023-02-08T00:39:51.999Z,-3.22
2023-02-08T00:42:18.413Z,-3.22
2023-02-08T00:44:45.320Z,-3.25
2023-02-08T00:47:11.973Z,-3.26
2023-02-08T00:49:38.455Z,-3.29
2023-02-08T00:52:05.017Z,-3.30
2023-02-08T00:54:31.606Z,-3.33
2023-02-08T00:56:58.053Z,-3.35
2023-02-08T00:59:24.758Z,-3.36
2023-02-08T01:01:51.169Z,-3.35
2023-02-08T01:04:17.653Z,-3.33
2023-02-08T01:06:44.222Z,-3.32
2023-02-08T01:09:10.756Z,-3.27
2023-02-08T01:11:37.258Z,-3.30
2023-02-08T01:14:04.128Z,-3.35
2023-02-08T01:16:33.239Z,-3.35
2023-02-08T01:19:02.108Z,-3.35
2023-02-08T01:21:33.915Z,-3.35
2023-02-08T01:24:00.924Z,-3.41
2023-02-08T01:26:28.262Z,-3.39
2023-02-08T01:28:55.897Z,-3.36
2023-02-08T01:31:30.764Z,-3.36
2023-02-08T01:33:59.032Z,-3.38
2023-02-08T01:36:26.924Z,-3.41
2023-02-08T01:38:53.736Z,-3.46
2023-02-08T01:41:23.948Z,-3.49
2023-02-08T01:44:11.819Z,-3.50
2023-02-08T01:46:40.487Z,-3.58
2023-02-08T01:49:22.150Z,-3.59
2023-02-08T01:52:06.392Z,-3.59
2023-02-08T01:54:38.927Z,-3.61
2023-02-08T01:57:05.340Z,-3.68
2023-02-08T01:59:42.949Z,-3.68
2023-02-08T02:02:13.552Z,-3.70
2023-02-08T02:04:43.307Z,-3.73
2023-02-08T02:07:10.370Z,-3.74
2023-02-08T02:09:42.433Z,-3.74
2023-02-08T02:12:09.791Z,-3.79
2023-02-08T02:14:39.883Z,-3.79
2023-02-08T02:17:06.907Z,-3.78
2023-02-08T02:19:45.411Z,-3.82
2023-02-08T02:22:42.822Z,-3.84
2023-02-08T02:25:28.202Z,-3.85
2023-02-08T02:27:54.526Z,-3.79
2023-02-08T02:30:54.459Z,-3.75
2023-02-08T02:34:15.321Z,-3.78
2023-02-08T02:37:06.405Z,-3.78
2023-02-08T02:40:07.331Z,-3.85
2023-02-08T02:43:07.726Z,-3.90
2023-02-08T02:45:48.151Z,-3.90
2023-02-08T02:48:25.655Z,-3.88
2023-02-08T02:51:08.847Z,-3.90
2023-02-08T02:53:58.111Z,-3.93
2023-02-08T02:56:29.455Z,-3.98
2023-02-08T02:59:01.283Z,-4.01
2023-02-08T03:01:30.117Z,-3.99
2023-02-08T03:03:57.045Z,-3.97
2023-02-08T03:06:39.150Z,-4.00
2023-02-08T03:09:30.683Z,-4.08
2023-02-08T03:12:07.958Z,-4.11
2023-02-08T03:14:50.097Z,-4.12
2023-02-08T03:17:45.203Z,-4.09
2023-02-08T03:20:24.794Z,-4.10
2023-02-08T03:23:02.558Z,-4.16
2023-02-08T03:25:55.492Z,-4.16
2023-02-08T03:28:35.234Z,-4.16
2023-02-08T03:31:11.535Z,-4.16
2023-02-08T03:33:57.309Z,-4.20
2023-02-08T03:36:33.425Z,-4.22
2023-02-08T03:39:04.972Z,-4.25
2023-02-08T03:41:38.054Z,-4.26
2023-02-08T03:44:13.429Z,-4.26
2023-02-08T03:46:46.829Z,-4.24
2023-02-08T03:49:22.253Z,-4.26
2023-02-08T03:51:50.134Z,-4.26
2023-02-08T03:54:27.972Z,-4.18
2023-02-08T03:57:17.957Z,-4.11
2023-02-08T03:59:51.087Z,-4.12
2023-02-08T04:02:28.695Z,-4.17
2023-02-08T04:04:56.508Z,-4.17
2023-02-08T04:07:23.148Z,-4.20
2023-02-08T04:09:49.629Z,-4.23
2023-02-08T04:12:16.061Z,-4.26
2023-02-08T04:14:42.601Z,-4.30
2023-02-08T04:17:09.068Z,-4.30
2023-02-08T04:19:35.570Z,-4.31
2023-02-08T04:22:01.984Z,-4.31
2023-02-08T04:24:28.531Z,-4.32
2023-02-08T04:26:55.121Z,-4.37
2023-02-08T04:29:21.839Z,-4.37
2023-02-08T04:31:48.515Z,-4.37
2023-02-08T04:34:15.238Z,-4.43
2023-02-08T04:36:41.743Z,-4.44
2023-02-08T04:39:08.126Z,-4.42
2023-02-08T04:41:34.553Z,-4.45
2023-02-08T04:44:01.196Z,-4.45
2023-02-08T04:46:27.746Z,-4.47
2023-02-08T04:48:54.325Z,-4.51
2023-02-08T04:51:20.791Z,-4.55
2023-02-08T04:53:47.368Z,-4.58
2023-02-08T04:56:14.698Z,-4.59
2023-02-08T04:58:41.055Z,-4.61
2023-02-08T05:01:10.722Z,-4.59
2023-02-08T05:03:37.370Z,-4.60
2023-02-08T05:06:03.752Z,-4.60
2023-02-08T05:08:30.118Z,-4.61
2023-02-08T05:10:56.459Z,-4.58
2023-02-08T05:13:23.040Z,-4.56
2023-02-08T05:15:49.493Z,-4.54
2023-02-08T05:18:15.857Z,-4.53
2023-02-08T05:20:42.709Z,-4.54
2023-02-08T05:23:09.471Z,-4.57
2023-02-08T05:25:37.401Z,-4.62
2023-02-08T05:28:03.882Z,-4.64
2023-02-08T05:30:31.449Z,-4.63
2023-02-08T05:32:58.278Z,-4.66
2023-02-08T05:35:24.680Z,-4.69
2023-02-08T05:37:51.053Z,-4.70
2023-02-08T05:40:17.781Z,-4.70
2023-02-08T05:42:44.703Z,-4.72
2023-02-08T05:45:11.084Z,-4.75
2023-02-08T05:47:49.589Z,-4.76
2023-02-08T05:50:16.275Z,-4.78
2023-02-08T05:52:46.203Z,-4.82
2023-02-08T05:55:15.888Z,-4.87
2023-02-08T05:57:48.786Z,-4.94
2023-02-08T06:00:15.854Z,-4.96
2023-02-08T06:02:42.263Z,-5.02
2023-02-08T06:05:08.862Z,-5.05
2023-02-08T06:07:35.405Z,-5.04
2023-02-08T06:10:01.986Z,-5.01
2023-02-08T06:12:28.540Z,-5.03
2023-02-08T06:14:55.060Z,-5.04
2023-02-08T06:17:21.795Z,-5.05
2023-02-08T06:19:48.254Z,-5.06
2023-02-08T06:22:14.721Z,-5.07
2023-02-08T06:24:41.290Z,-5.06
2023-02-08T06:27:07.806Z,-5.07
2023-02-08T06:29:34.222Z,-5.07
2023-02-08T06:32:00.723Z,-5.07
2023-02-08T06:34:27.229Z,-5.06
2023-02-08T06:36:53.603Z,-5.08
2023-02-08T06:39:42.510Z,-5.07
2023-02-08T06:42:07.501Z,-5.01
2023-02-08T06:44:34.123Z,-4.99
2023-02-08T06:47:00.613Z,-4.98
2023-02-08T06:49:27.125Z,-4.97
2023-02-08T06:51:53.523Z,-4.97
2023-02-08T06:54:19.954Z,-4.98
2023-02-08T06:56:46.611Z,-4.98
2023-02-08T06:59:13.301Z,-5.00
2023-02-08T07:01:39.731Z,-5.03
2023-02-08T07:04:06.398Z,-5.01
2023-02-08T07:06:32.969Z,-4.97
2023-02-08T07:08:59.739Z,-4.95
2023-02-08T07:11:26.332Z,-4.96
2023-02-08T07:13:54.694Z,-4.96
2023-02-08T07:16:21.469Z,-4.95
2023-02-08T07:18:48.170Z,-4.93
2023-02-08T07:21:23.434Z,-4.91
2023-02-08T07:23:50.133Z,-4.89
2023-02-08T07:26:17.285Z,-4.91
2023-02-08T07:28:44.356Z,-4.90
2023-02-08T07:31:13.968Z,-4.87
2023-02-08T07:33:41.012Z,-4.81
2023-02-08T07:36:09.102Z,-4.80
2023-02-08T07:38:35.730Z,-4.79
2023-02-08T07:41:18.818Z,-4.79
2023-02-08T07:43:58.141Z,-4.77
2023-02-08T07:46:25.014Z,-4.73
2023-02-08T07:48:52.734Z,-4.73
2023-02-08T07:51:19.780Z,-4.68
2023-02-08T07:53:46.268Z,-4.63
2023-02-08T07:56:12.653Z,-4.57
2023-02-08T07:58:39.676Z,-4.52
2023-02-08T08:01:20.006Z,-4.48
2023-02-08T08:03:47.904Z,-4.40
2023-02-08T08:06:14.346Z,-3.51
2023-02-08T08:08:40.837Z,-1.36
2023-02-08T08:11:07.213Z,0.30
2023-02-08T08:13:33.622Z,2.54
2023-02-08T08:16:00.195Z,5.79
2023-02-08T08:18:26.661Z,7.91
2023-02-08T08:20:53.126Z,9.18
2023-02-08T08:23:19.944Z,8.97
2023-02-08T08:25:46.545Z,9.56
2023-02-08T08:28:23.365Z,9.77
2023-02-08T08:30:49.989Z,10.32
2023-02-08T08:33:16.627Z,10.70
2023-02-08T08:35:54.192Z,9.12
2023-02-08T08:38:20.665Z,7.44
2023-02-08T08:40:47.096Z,7.06
2023-02-08T08:43:13.734Z,7.78
2023-02-08T08:45:40.206Z,8.06
2023-02-08T08:48:06.866Z,8.64
2023-02-08T08:50:33.316Z,9.04
2023-02-08T08:52:59.774Z,10.28
2023-02-08T08:55:27.973Z,10.18
2023-02-08T08:58:08.428Z,9.79
2023-02-08T09:00:34.838Z,9.31
2023-02-08T09:03:01.347Z,7.41
2023-02-08T09:05:27.778Z,5.52
2023-02-08T09:07:54.117Z,4.77
2023-02-08T09:10:20.673Z,5.25
2023-02-08T09:12:47.407Z,4.87
2023-02-08T09:15:14.029Z,3.69
2023-02-08T09:17:40.472Z,2.77
2023-02-08T09:20:07.296Z,2.18
2023-02-08T09:22:33.797Z,1.90
2023-02-08T09:25:02.185Z,1.74
2023-02-08T09:27:29.730Z,1.60
2023-02-08T09:29:56.252Z,1.43
2023-02-08T09:32:23.090Z,1.23
2023-02-08T09:34:49.634Z,1.14
2023-02-08T09:37:17.474Z,1.07
2023-02-08T09:39:44.309Z,1.01
2023-02-08T09:42:35.401Z,0.93
2023-02-08T09:45:14.851Z,0.82
2023-02-08T09:47:54.420Z,0.78
2023-02-08T09:50:26.851Z,0.77
2023-02-08T09:53:19.618Z,0.78
2023-02-08T09:56:14.264Z,0.79
2023-02-08T09:58:44.656Z,0.83
2023-02-08T10:01:18.772Z,1.17
2023-02-08T10:03:47.092Z,1.71
2023-02-08T10:06:17.334Z,1.92
2023-02-08T10:08:46.125Z,2.44
2023-02-08T10:11:30.927Z,2.82
2023-02-08T10:14:22.237Z,2.45
2023-02-08T10:17:01.519Z,2.95
2023-02-08T10:19:56.199Z,3.15
2023-02-08T10:22:56.866Z,2.74
2023-02-08T10:25:43.829Z,3.28
2023-02-08T10:28:24.540Z,4.24
2023-02-08T10:31:02.346Z,4.47
2023-02-08T10:33:45.868Z,5.21
2023-02-08T10:36:16.844Z,6.28
2023-02-08T10:38:46.747Z,5.44
2023-02-08T10:41:21.902Z,5.21
2023-02-08T10:44:23.639Z,4.60
2023-02-08T10:47:09.288Z,5.45
2023-02-08T10:49:50.276Z,5.50
2023-02-08T10:52:16.662Z,5.90
2023-02-08T10:54:43.428Z,7.32
2023-02-08T10:57:16.667Z,9.09
2023-02-08T11:00:04.206Z,9.23
2023-02-08T11:02:35.355Z,8.81
2023-02-08T11:05:04.528Z,8.58
2023-02-08T11:07:33.589Z,8.64
2023-02-08T11:10:20.091Z,8.53
2023-02-08T11:13:01.401Z,8.51
2023-02-08T11:15:36.595Z,9.38
2023-02-08T11:18:04.503Z,9.38
2023-02-08T11:20:40.273Z,9.71
2023-02-08T11:23:21.790Z,8.90
2023-02-08T11:25:48.372Z,9.22
2023-02-08T11:28:30.726Z,10.37
2023-02-08T11:31:08.225Z,10.26
2023-02-08T11:33:35.178Z,9.59
2023-02-08T11:36:07.284Z,10.17
2023-02-08T11:38:36.890Z,11.18
2023-02-08T11:41:13.739Z,11.50
2023-02-08T11:46:34.416Z,12.86
2023-02-08T11:49:01.213Z,12.64
2023-02-08T11:51:36.674Z,12.23
2023-02-08T11:54:05.587Z,12.43
2023-02-08T11:56:34.822Z,12.16
2023-02-08T11:59:07.768Z,10.97
2023-02-08T12:01:42.059Z,9.83
2023-02-08T12:04:11.697Z,10.21
2023-02-08T12:06:53.059Z,10.66
2023-02-08T12:09:35.185Z,10.27
2023-02-08T12:12:21.209Z,11.03
2023-02-08T12:15:00.684Z,10.70
2023-02-08T12:18:05.201Z,9.62
2023-02-08T12:20:47.074Z,8.88
2023-02-08T12:23:44.736Z,8.20
2023-02-08T12:26:24.414Z,7.72
2023-02-08T12:28:59.800Z,7.50
2023-02-08T12:31:53.145Z,7.32
2023-02-08T12:34:33.548Z,7.25
2023-02-08T12:37:26.497Z,7.17
2023-02-08T12:40:34.071Z,7.14
2023-02-08T12:43:13.797Z,7.05
2023-02-08T12:45:43.536Z,6.97
2023-02-08T12:48:24.005Z,6.92
2023-02-08T12:51:09.913Z,6.74
2023-02-08T12:53:54.057Z,6.65
2023-02-08T12:56:25.311Z,6.61
2023-02-08T12:59:11.755Z,6.53
2023-02-08T13:01:46.608Z,6.48
2023-02-08T13:04:19.346Z,6.38
2023-02-08T13:06:55.013Z,6.31
2023-02-08T13:09:35.505Z,6.31
2023-02-08T13:12:20.402Z,6.25
2023-02-08T13:15:05.272Z,6.16
2023-02-08T13:17:43.648Z,6.09
2023-02-08T13:20:33.669Z,6.07
2023-02-08T13:23:04.307Z,6.07
2023-02-08T13:25:34.992Z,6.07
2023-02-08T13:28:04.418Z,6.05
2023-02-08T13:30:32.044Z,6.03
2023-02-08T13:33:05.885Z,6.00
2023-02-08T13:35:32.877Z,5.95
2023-02-08T13:38:06.068Z,5.92
2023-02-08T13:40:36.895Z,5.94
2023-02-08T13:43:36.027Z,5.95
2023-02-08T13:46:04.689Z,5.94
2023-02-08T13:49:00.606Z,5.92
2023-02-08T13:51:33.173Z,5.91
2023-02-08T13:54:00.337Z,5.92
2023-02-08T13:56:43.810Z,5.89
2023-02-08T13:59:38.045Z,5.91
2023-02-08T14:02:18.878Z,5.92
2023-02-08T14:04:47.643Z,5.91
2023-02-08T14:07:21.981Z,5.96
2023-02-08T14:10:03.428Z,6.03
2023-02-08T14:12:49.301Z,6.06
2023-02-08T14:15:15.606Z,6.08
2023-02-08T14:17:49.652Z,6.12
2023-02-08T14:20:22.197Z,6.12
2023-02-08T14:22:55.999Z,6.13
2023-02-08T14:25:26.563Z,6.15
2023-02-08T14:28:02.263Z,6.19
2023-02-08T14:30:34.014Z,6.18
2023-02-08T14:33:07.539Z,6.14
2023-02-08T14:35:37.641Z,6.20
2023-02-08T14:38:19.602Z,6.19
2023-02-08T14:40:55.086Z,6.16
2023-02-08T14:43:40.154Z,6.18
2023-02-08T14:46:37.982Z,6.20
2023-02-08T14:49:18.715Z,6.16
2023-02-08T14:51:59.624Z,6.11
2023-02-08T14:54:35.872Z,6.06
2023-02-08T14:57:06.561Z,6.03
2023-02-08T14:59:35.546Z,6.02
2023-02-08T15:02:19.279Z,6.01
2023-02-08T15:04:46.839Z,6.01
2023-02-08T15:07:33.403Z,6.00
2023-02-08T15:10:03.288Z,5.98
2023-02-08T15:12:34.256Z,5.99
2023-02-08T15:15:03.757Z,5.99
2023-02-08T15:17:35.435Z,5.96
2023-02-08T15:20:06.387Z,5.94
2023-02-08T15:22:36.648Z,5.93
2023-02-08T15:25:22.904Z,5.96
2023-02-08T15:27:55.734Z,5.92
2023-02-08T15:30:28.190Z,5.90
2023-02-08T15:32:55.452Z,5.86
2023-02-08T15:35:24.520Z,5.82
2023-02-08T15:37:52.450Z,5.77
2023-02-08T15:40:37.047Z,5.70
2023-02-08T15:43:12.077Z,5.63
2023-02-08T15:45:39.171Z,5.57
2023-02-08T15:48:06.898Z,5.53
2023-02-08T15:50:33.870Z,5.48
2023-02-08T15:53:06.536Z,5.40
2023-02-08T15:55:45.471Z,5.34
2023-02-08T15:58:30.111Z,5.27
2023-02-08T16:00:59.434Z,5.19
2023-02-08T16:03:27.972Z,5.13
2023-02-08T16:05:57.436Z,5.04
2023-02-08T16:08:30.591Z,4.95
2023-02-08T16:11:03.654Z,4.88
2023-02-08T16:13:33.532Z,4.79
2023-02-08T16:16:21.069Z,4.68
2023-02-08T16:18:56.010Z,4.57
2023-02-08T16:21:27.292Z,4.50
2023-02-08T16:23:56.611Z,4.41
2023-02-08T16:26:44.164Z,4.31
2023-02-08T16:29:23.913Z,4.20
2023-02-08T16:32:01.465Z,4.11
2023-02-08T16:34:29.617Z,3.98
2023-02-08T16:36:56.226Z,3.88
2023-02-08T16:40:02.555Z,3.75
2023-02-08T16:42:42.811Z,3.64
2023-02-08T16:45:09.730Z,3.52
2023-02-08T16:47:49.037Z,3.39
2023-02-08T16:50:19.967Z,3.25
2023-02-08T16:52:49.970Z,3.16
2023-02-08T16:55:24.783Z,3.07
2023-02-08T16:57:53.915Z,2.98
2023-02-08T17:00:33.558Z,2.89
2023-02-08T17:03:00.021Z,2.79
2023-02-08T17:05:29.934Z,2.69
2023-02-08T17:07:58.082Z,2.59
2023-02-08T17:10:29.034Z,2.49
2023-02-08T17:13:09.914Z,2.37
2023-02-08T17:15:43.936Z,2.28
2023-02-08T17:18:12.496Z,2.17
2023-02-08T17:20:39.571Z,2.09
2023-02-08T17:23:06.698Z,2.01
2023-02-08T17:25:34.077Z,1.91
2023-02-08T17:28:04.272Z,1.78
2023-02-08T17:30:39.285Z,1.64
2023-02-08T17:33:11.350Z,1.56
2023-02-08T17:35:38.300Z,1.49
2023-02-08T17:38:06.226Z,1.39
2023-02-08T17:40:35.474Z,1.30
2023-02-08T17:43:03.489Z,1.21
2023-02-08T17:45:30.241Z,1.11
2023-02-08T17:47:59.756Z,1.03
2023-02-08T17:50:26.529Z,0.93
2023-02-08T17:52:53.151Z,0.81
2023-02-08T17:55:19.630Z,0.76
2023-02-08T17:57:46.644Z,0.71
2023-02-08T18:00:21.753Z,0.63
2023-02-08T18:02:50.991Z,0.54
2023-02-08T18:05:20.447Z,0.46
2023-02-08T18:07:46.938Z,0.37
2023-02-08T18:10:15.146Z,0.33
2023-02-08T18:12:41.901Z,0.32
2023-02-08T18:15:12.311Z,0.30
2023-02-08T18:17:40.076Z,0.28
2023-02-08T18:20:08.287Z,0.24
2023-02-08T18:22:36.725Z,0.17
2023-02-08T18:25:04.443Z,0.13
2023-02-08T18:27:31.362Z,0.07
2023-02-08T18:29:57.927Z,-0.05
2023-02-08T18:32:28.084Z,-0.07
2023-02-08T18:34:56.393Z,-0.08
2023-02-08T18:37:23.403Z,-0.13
2023-02-08T18:39:51.450Z,-0.23
2023-02-08T18:42:17.949Z,-0.28
2023-02-08T18:44:44.401Z,-0.33
2023-02-08T18:47:11.061Z,-0.39
2023-02-08T18:49:40.971Z,-0.45
2023-02-08T18:52:10.250Z,-0.51
2023-02-08T18:54:38.317Z,-0.57
2023-02-08T18:57:06.293Z,-0.60
2023-02-08T18:59:33.497Z,-0.60
2023-02-08T19:02:01.686Z,-0.60
2023-02-08T19:04:28.640Z,-0.59
2023-02-08T19:06:55.117Z,-0.59
2023-02-08T19:09:21.680Z,-0.61
2023-02-08T19:11:48.247Z,-0.63
2023-02-08T19:14:15.854Z,-0.65
2023-02-08T19:16:43.089Z,-0.67
2023-02-08T19:19:09.546Z,-0.71
2023-02-08T19:21:36.393Z,-0.76
2023-02-08T19:24:03.008Z,-0.82
2023-02-08T19:26:36.942Z,-0.87
2023-02-08T19:29:06.710Z,-0.88
2023-02-08T19:31:34.431Z,-0.86
2023-02-08T19:34:03.072Z,-0.84
2023-02-08T19:36:37.253Z,-0.84
2023-02-08T19:39:06.633Z,-0.84
2023-02-08T19:41:38.948Z,-0.84
2023-02-08T19:44:08.330Z,-0.87
2023-02-08T19:46:38.870Z,-0.89
2023-02-08T19:49:06.770Z,-0.81
2023-02-08T19:51:36.901Z,-0.77
2023-02-08T19:54:06.982Z,-0.78
2023-02-08T19:56:36.883Z,-0.81
2023-02-08T19:59:04.795Z,-0.82
2023-02-08T20:01:33.388Z,-0.86
2023-02-08T20:04:00.557Z,-0.92
2023-02-08T20:06:44.918Z,-0.93
2023-02-08T20:09:15.170Z,-0.97
2023-02-08T20:11:55.060Z,-1.00
2023-02-08T20:14:24.084Z,-1.03
2023-02-08T20:16:50.740Z,-1.06
2023-02-08T20:19:17.397Z,-1.12
2023-02-08T20:21:45.311Z,-1.16
2023-02-08T20:24:23.362Z,-1.18
2023-02-08T20:26:51.339Z,-1.13
2023-02-08T20:29:18.256Z,-1.15
2023-02-08T20:32:08.978Z,-1.18
2023-02-08T20:34:35.411Z,-1.21
2023-02-08T20:39:42.312Z,-1.26
2023-02-08T20:42:09.795Z,-1.29
2023-02-08T20:47:28.528Z,-1.30
2023-02-08T20:49:56.407Z,-1.27
2023-02-08T20:52:23.098Z,-1.25
2023-02-08T20:54:49.692Z,-1.26
2023-02-08T20:57:18.078Z,-1.25
2023-02-08T20:59:45.541Z,-1.29
2023-02-08T21:02:23.471Z,-1.33
2023-02-08T21:04:50.150Z,-1.37
2023-02-08T21:07:17.143Z,-1.38
2023-02-08T21:09:45.722Z,-1.39
2023-02-08T21:12:27.596Z,-1.43
2023-02-08T21:14:54.159Z,-1.46
2023-02-08T21:17:20.583Z,-1.47
2023-02-08T21:19:47.746Z,-1.47
2023-02-08T21:22:14.384Z,-1.50
2023-02-08T21:24:40.888Z,-1.55
2023-02-08T21:27:07.690Z,-1.59
2023-02-08T21:29:34.117Z,-1.61
2023-02-08T21:32:01.264Z,-1.63
2023-02-08T21:34:27.960Z,-1.64
2023-02-08T21:36:54.352Z,-1.66
2023-02-08T21:39:21.004Z,-1.68
2023-02-08T21:41:48.330Z,-1.74
2023-02-08T21:44:15.278Z,-1.76
2023-02-08T21:46:41.917Z,-1.79
2023-02-08T21:49:28.549Z,-1.80
2023-02-08T21:52:13.784Z,-1.82
2023-02-08T21:54:44.574Z,-1.85
2023-02-08T21:57:18.644Z,-1.89
2023-02-08T21:59:47.000Z,-1.90
2023-02-08T22:02:17.008Z,-1.93
2023-02-08T22:04:46.844Z,-1.96
2023-02-08T22:07:13.841Z,-1.95
2023-02-08T22:09:41.652Z,-1.92
2023-02-08T22:12:12.843Z,-1.90
2023-02-08T22:14:39.346Z,-1.91
2023-02-08T22:17:06.087Z,-1.91
2023-02-08T22:19:33.069Z,-1.95
2023-02-08T22:21:59.547Z,-1.95
2023-02-08T22:24:25.962Z,-1.97
2023-02-08T22:26:52.332Z,-2.00
2023-02-08T22:29:18.727Z,-2.02
2023-02-08T22:31:45.341Z,-2.06
2023-02-08T22:34:11.845Z,-2.16
2023-02-08T22:36:38.250Z,-2.17
2023-02-08T22:39:04.769Z,-2.20
2023-02-08T22:41:31.282Z,-2.22
2023-02-08T22:43:58.064Z,-2.23
2023-02-08T22:46:24.588Z,-2.27
2023-02-08T22:48:51.219Z,-2.32
2023-02-08T22:51:19.293Z,-2.35
2023-02-08T22:53:46.330Z,-2.37
2023-02-08T22:56:17.233Z,-2.37
2023-02-08T22:58:43.879Z,-2.38
2023-02-08T23:01:11.905Z,-2.38
2023-02-08T23:03:39.281Z,-2.38
2023-02-08T23:06:08.056Z,-2.41
2023-02-08T23:08:34.788Z,-2.46
2023-02-08T23:11:20.835Z,-2.50
2023-02-08T23:13:47.721Z,-2.50
2023-02-08T23:16:17.407Z,-2.51
2023-02-08T23:18:44.760Z,-2.53
2023-02-08T23:21:15.289Z,-2.57
2023-02-08T23:23:42.049Z,-2.59
2023-02-08T23:26:15.162Z,-2.57
2023-02-08T23:28:41.989Z,-2.55
2023-02-08T23:31:11.623Z,-2.54
2023-02-08T23:36:23.150Z,-2.54
2023-02-08T23:38:50.513Z,-2.44
2023-02-08T23:41:20.585Z,-2.38
2023-02-08T23:43:50.342Z,-2.34
2023-02-08T23:46:30.170Z,-2.35
2023-02-08T23:48:59.883Z,-2.34
2023-02-08T23:51:26.393Z,-2.29
2023-02-08T23:53:54.558Z,-2.24
2023-02-08T23:56:23.122Z,-2.17
2023-02-08T23:58:51.776Z,-2.12
